Time;durP1;ratioP1;P1;durP2;ratioP2;P2;SDS_P1;SDS_P2;PMS_P1;PMS_P2;Temp;Humidity;BMP_temperature;BMP_pressure;BME280_temperature;BME280_humidity;BME280_pressure;Samples;Min_cycle;Max_cycle;Signal;HPM_P1;HPM_P2
2023/06/05 00:00:35;;;;;;;8.75;7.28;;;;;;;;;;5031067;28;20055;-88
2023/06/05 00:03:01;;;;;;;9.83;7.63;;;;;;;;;;5024260;28;20086;-88
2023/06/05 00:05:27;;;;;;;8.38;7.57;;;;;;;;;;5047433;28;20044;-87
2023/06/05 00:07:53;;;;;;;10.43;8.07;;;;;;;;;;5030235;28;20041;-88
2023/06/05 00:10:22;;;;;;;10.45;8.18;;;;;;;;;;5034170;28;20041;-87
2023/06/05 00:12:48;;;;;;;10.32;8.05;;;;;;;;;;5027896;28;20552;-87
2023/06/05 00:15:15;;;;;;;11.30;8.07;;;;;;;;;;4998812;28;20594;-87
2023/06/05 00:17:41;;;;;;;9.63;7.10;;;;;;;;;;4991200;28;20094;-88
2023/06/05 00:20:09;;;;;;;11.43;8.27;;;;;;;;;;5046804;28;20072;-87
2023/06/05 00:22:35;;;;;;;8.88;7.43;;;;;;;;;;4995351;28;20147;-87
2023/06/05 00:25:01;;;;;;;9.82;7.50;;;;;;;;;;5009769;28;20044;-87
2023/06/05 00:27:31;;;;;;;9.02;7.85;;;;;;;;;;5015857;28;20191;-87
2023/06/05 00:29:57;;;;;;;11.68;8.48;;;;;;;;;;5010300;28;20044;-87
2023/06/05 00:32:23;;;;;;;9.73;8.40;;;;;;;;;;5010625;28;20045;-87
2023/06/05 00:34:52;;;;;;;9.60;7.55;;;;;;;;;;4993461;28;20058;-87
2023/06/05 00:37:18;;;;;;;9.05;7.88;;;;;;;;;;5016116;28;20131;-87
2023/06/05 00:39:44;;;;;;;10.90;8.35;;;;;;;;;;5009744;28;20037;-87
2023/06/05 00:42:10;;;;;;;10.40;8.30;;;;;;;;;;5030475;28;20125;-87
2023/06/05 00:44:36;;;;;;;9.50;8.43;;;;;;;;;;5038539;28;20064;-87
2023/06/05 00:47:02;;;;;;;13.35;8.27;;;;;;;;;;5043581;28;20467;-87
2023/06/05 00:49:28;;;;;;;12.40;8.77;;;;;;;;;;5029195;28;20045;-87
2023/06/05 00:51:54;;;;;;;9.90;8.35;;;;;;;;;;5012347;28;21230;-87
2023/06/05 00:54:22;;;;;;;11.52;8.18;;;;;;;;;;5027448;28;20037;-87
2023/06/05 00:56:48;;;;;;;10.93;8.80;;;;;;;;;;5029728;28;20052;-87
2023/06/05 00:59:14;;;;;;;10.48;8.70;;;;;;;;;;5050269;28;20072;-87
2023/06/05 01:01:42;;;;;;;9.98;8.63;;;;;;;;;;5040007;28;20059;-87
2023/06/05 01:04:09;;;;;;;12.07;8.63;;;;;;;;;;5046987;28;21615;-86
2023/06/05 01:06:35;;;;;;;8.88;7.65;;;;;;;;;;5039964;28;20048;-87
2023/06/05 01:09:02;;;;;;;9.90;8.48;;;;;;;;;;5042547;28;20037;-87
2023/06/05 01:11:31;;;;;;;9.80;8.65;;;;;;;;;;5045694;28;20048;-86
2023/06/05 01:14:17;;;;;;;9.32;8.32;;;;;;;;;;5044693;28;20434;-87
2023/06/05 01:16:45;;;;;;;12.63;8.30;;;;;;;;;;5046903;28;20044;-87
2023/06/05 01:19:14;;;;;;;10.37;8.13;;;;;;;;;;5029856;28;20051;-87
2023/06/05 01:21:43;;;;;;;9.93;7.93;;;;;;;;;;5031559;28;20047;-87
2023/06/05 01:24:13;;;;;;;12.38;9.30;;;;;;;;;;5031698;28;20484;-87
2023/06/05 01:26:54;;;;;;;9.93;8.52;;;;;;;;;;5038982;28;20036;-87
2023/06/05 01:29:22;;;;;;;11.73;9.10;;;;;;;;;;5047643;28;20091;-87
2023/06/05 01:31:48;;;;;;;9.63;7.88;;;;;;;;;;5046639;28;20450;-87
2023/06/05 01:34:19;;;;;;;10.68;9.10;;;;;;;;;;5031463;28;20044;-87
2023/06/05 01:36:49;;;;;;;11.35;9.13;;;;;;;;;;5025568;28;20052;-87
2023/06/05 01:39:18;;;;;;;11.45;8.90;;;;;;;;;;5044654;28;20854;-87
2023/06/05 01:41:46;;;;;;;13.27;9.60;;;;;;;;;;5027879;28;20047;-87
2023/06/05 01:44:15;;;;;;;13.13;9.23;;;;;;;;;;5045764;28;20078;-87
2023/06/05 01:46:41;;;;;;;11.35;8.27;;;;;;;;;;5045524;28;20123;-87
2023/06/05 01:49:08;;;;;;;10.45;8.35;;;;;;;;;;5046839;28;20032;-87
2023/06/05 01:51:35;;;;;;;12.32;9.00;;;;;;;;;;5034851;28;20487;-87
2023/06/05 01:54:02;;;;;;;12.70;9.07;;;;;;;;;;5047282;28;20052;-87
2023/06/05 01:56:30;;;;;;;10.07;8.05;;;;;;;;;;5027874;28;20051;-87
2023/06/05 01:58:56;;;;;;;9.82;8.00;;;;;;;;;;5041744;28;20052;-87
2023/06/05 02:01:22;;;;;;;12.38;7.68;;;;;;;;;;5037044;28;20041;-87
2023/06/05 02:03:49;;;;;;;11.75;8.30;;;;;;;;;;5042178;28;20061;-87
2023/06/05 02:06:18;;;;;;;10.75;8.30;;;;;;;;;;5030980;28;20037;-87
2023/06/05 02:08:45;;;;;;;11.68;8.45;;;;;;;;;;5041445;28;20041;-87
2023/06/05 02:11:11;;;;;;;10.88;8.15;;;;;;;;;;5049031;28;20055;-86
2023/06/05 02:13:40;;;;;;;8.68;7.05;;;;;;;;;;5041017;28;20053;-87
2023/06/05 02:16:08;;;;;;;9.80;8.30;;;;;;;;;;5034647;28;20415;-87
2023/06/05 02:18:37;;;;;;;13.60;7.85;;;;;;;;;;5014130;28;20044;-87
2023/06/05 02:21:04;;;;;;;10.70;7.47;;;;;;;;;;5045281;28;20045;-87
2023/06/05 02:23:31;;;;;;;10.27;7.50;;;;;;;;;;5033441;28;20041;-87
2023/06/05 02:26:06;;;;;;;10.10;7.47;;;;;;;;;;5045267;28;20036;-87
2023/06/05 02:28:32;;;;;;;11.05;7.15;;;;;;;;;;5046610;28;20032;-86
2023/06/05 02:30:59;;;;;;;10.73;8.02;;;;;;;;;;5042616;28;20041;-87
2023/06/05 02:33:26;;;;;;;8.02;6.68;;;;;;;;;;5032484;28;20066;-86
2023/06/05 02:35:52;;;;;;;9.07;7.50;;;;;;;;;;5031150;28;20554;-86
2023/06/05 02:38:18;;;;;;;10.88;7.43;;;;;;;;;;5050815;28;20071;-87
2023/06/05 02:40:44;;;;;;;9.52;7.07;;;;;;;;;;5048228;28;20044;-86
2023/06/05 02:43:17;;;;;;;11.25;7.43;;;;;;;;;;5040864;28;20090;-86
2023/06/05 02:45:43;;;;;;;13.38;7.68;;;;;;;;;;5046135;28;20072;-86
2023/06/05 02:48:09;;;;;;;11.35;8.20;;;;;;;;;;5046131;28;20063;-86
2023/06/05 02:50:35;;;;;;;11.20;7.90;;;;;;;;;;5039138;28;20055;-86
2023/06/05 02:53:02;;;;;;;11.52;7.07;;;;;;;;;;5056906;28;20491;-86
2023/06/05 02:55:29;;;;;;;10.43;7.25;;;;;;;;;;5055356;28;20090;-86
2023/06/05 02:57:57;;;;;;;9.40;7.10;;;;;;;;;;5018546;28;20076;-86
2023/06/05 03:00:25;;;;;;;9.82;6.57;;;;;;;;;;5048612;28;20048;-86
2023/06/05 03:02:51;;;;;;;10.98;7.53;;;;;;;;;;5022650;28;20080;-86
2023/06/05 03:05:24;;;;;;;10.25;7.22;;;;;;;;;;5024430;28;20539;-86
2023/06/05 03:07:52;;;;;;;8.27;7.40;;;;;;;;;;5014007;28;20033;-87
2023/06/05 03:10:19;;;;;;;11.15;7.72;;;;;;;;;;5042055;28;20163;-86
2023/06/05 03:12:48;;;;;;;7.40;6.68;;;;;;;;;;5027387;28;20037;-86
2023/06/05 03:15:17;;;;;;;10.02;7.28;;;;;;;;;;5043518;28;20038;-86
2023/06/05 03:17:46;;;;;;;8.82;7.63;;;;;;;;;;5027299;28;20183;-86
2023/06/05 03:20:12;;;;;;;10.48;7.75;;;;;;;;;;5034395;28;20412;-86
2023/06/05 03:22:39;;;;;;;8.43;7.13;;;;;;;;;;5058466;28;20475;-87
2023/06/05 03:25:08;;;;;;;11.95;8.45;;;;;;;;;;5045634;28;20103;-87
2023/06/05 03:27:34;;;;;;;11.50;7.53;;;;;;;;;;5027540;28;20037;-87
2023/06/05 03:30:01;;;;;;;13.88;8.32;;;;;;;;;;5026552;28;20033;-87
2023/06/05 03:32:27;;;;;;;9.25;8.13;;;;;;;;;;5028547;28;20080;-87
2023/06/05 03:34:53;;;;;;;13.65;8.18;;;;;;;;;;5040136;28;20090;-87
2023/06/05 03:37:19;;;;;;;9.93;7.53;;;;;;;;;;5043691;28;20041;-87
2023/06/05 03:39:45;;;;;;;13.68;8.88;;;;;;;;;;5043994;28;20544;-86
2023/06/05 03:42:11;;;;;;;11.15;8.40;;;;;;;;;;5037675;28;20479;-86
2023/06/05 03:44:38;;;;;;;13.45;9.30;;;;;;;;;;5048624;28;20037;-86
2023/06/05 03:47:05;;;;;;;10.90;8.38;;;;;;;;;;5032685;28;20107;-86
2023/06/05 03:49:31;;;;;;;13.60;9.20;;;;;;;;;;5042164;28;20123;-86
2023/06/05 03:52:00;;;;;;;11.52;8.63;;;;;;;;;;5013871;28;20514;-87
2023/06/05 03:54:27;;;;;;;13.13;8.98;;;;;;;;;;5030286;28;20054;-86
2023/06/05 03:56:55;;;;;;;12.02;9.05;;;;;;;;;;5011953;28;20399;-87
2023/06/05 03:59:22;;;;;;;12.10;8.98;;;;;;;;;;5048145;28;20067;-87
2023/06/05 04:01:48;;;;;;;12.20;8.98;;;;;;;;;;5041169;28;20048;-87
2023/06/05 04:04:15;;;;;;;11.00;8.65;;;;;;;;;;5042187;28;20068;-86
2023/06/05 04:06:41;;;;;;;10.95;8.93;;;;;;;;;;5030847;28;20060;-86
2023/06/05 04:09:11;;;;;;;13.35;8.75;;;;;;;;;;5017225;28;20041;-86
2023/06/05 04:11:42;;;;;;;13.48;8.93;;;;;;;;;;5026691;28;20072;-87
2023/06/05 04:14:08;;;;;;;13.15;8.93;;;;;;;;;;5030758;28;20072;-86
2023/06/05 04:16:44;;;;;;;12.23;8.50;;;;;;;;;;5026553;28;20064;-86
2023/06/05 04:19:11;;;;;;;13.77;9.93;;;;;;;;;;5030600;28;20119;-86
2023/06/05 04:21:37;;;;;;;12.32;8.77;;;;;;;;;;5011774;28;20135;-87
2023/06/05 04:24:08;;;;;;;11.68;8.93;;;;;;;;;;5029378;28;20052;-87
2023/06/05 04:26:36;;;;;;;12.65;9.38;;;;;;;;;;5012134;28;20036;-86
2023/06/05 04:29:02;;;;;;;13.88;9.45;;;;;;;;;;5028739;28;20064;-87
2023/06/05 04:31:32;;;;;;;13.02;10.07;;;;;;;;;;5025677;28;20044;-87
2023/06/05 04:33:58;;;;;;;12.20;9.82;;;;;;;;;;5035479;28;21995;-87
2023/06/05 04:36:25;;;;;;;11.20;9.60;;;;;;;;;;5048597;28;20041;-87
2023/06/05 04:38:51;;;;;;;11.25;9.05;;;;;;;;;;5029788;28;20044;-86
2023/06/05 04:41:17;;;;;;;11.70;9.50;;;;;;;;;;5017367;28;20071;-86
2023/06/05 04:43:43;;;;;;;11.63;8.98;;;;;;;;;;5032236;28;20033;-86
2023/06/05 04:46:09;;;;;;;11.48;8.70;;;;;;;;;;5036514;28;20049;-87
2023/06/05 04:48:36;;;;;;;11.50;8.50;;;;;;;;;;5022805;28;20119;-86
2023/06/05 04:51:03;;;;;;;13.50;9.65;;;;;;;;;;5046050;28;20056;-86
2023/06/05 04:53:31;;;;;;;10.85;8.52;;;;;;;;;;5047063;28;20119;-87
2023/06/05 04:56:00;;;;;;;11.63;9.10;;;;;;;;;;5045315;28;20040;-86
2023/06/05 04:58:26;;;;;;;11.25;8.27;;;;;;;;;;5044706;28;20058;-86
2023/06/05 05:00:52;;;;;;;12.52;9.50;;;;;;;;;;5048211;28;20048;-86
2023/06/05 05:03:18;;;;;;;11.15;8.77;;;;;;;;;;5056503;28;20056;-87
2023/06/05 05:05:44;;;;;;;10.73;8.60;;;;;;;;;;5036709;28;20387;-87
2023/06/05 05:08:11;;;;;;;12.02;9.02;;;;;;;;;;5052426;28;20049;-86
2023/06/05 05:10:37;;;;;;;10.52;8.73;;;;;;;;;;5047025;28;20048;-87
2023/06/05 05:13:03;;;;;;;11.00;8.82;;;;;;;;;;5026515;28;20040;-86
2023/06/05 05:15:29;;;;;;;11.45;8.65;;;;;;;;;;5035180;28;20041;-86
2023/06/05 05:17:56;;;;;;;17.00;8.77;;;;;;;;;;5043260;28;20491;-86
2023/06/05 05:20:22;;;;;;;10.07;8.98;;;;;;;;;;5052845;28;20037;-86
2023/06/05 05:22:49;;;;;;;10.80;8.52;;;;;;;;;;5039813;28;20582;-86
2023/06/05 05:25:15;;;;;;;10.80;8.27;;;;;;;;;;5045760;28;20525;-86
2023/06/05 05:27:41;;;;;;;10.43;8.75;;;;;;;;;;5039818;28;20063;-87
2023/06/05 05:30:08;;;;;;;12.32;8.27;;;;;;;;;;5009842;28;20503;-86
2023/06/05 05:32:34;;;;;;;10.48;8.18;;;;;;;;;;5055943;28;20733;-86
2023/06/05 05:35:00;;;;;;;14.13;9.00;;;;;;;;;;5048964;28;20048;-86
2023/06/05 05:37:26;;;;;;;9.65;8.05;;;;;;;;;;5049910;28;20040;-86
2023/06/05 05:39:52;;;;;;;10.98;8.00;;;;;;;;;;5044135;28;20131;-86
2023/06/05 05:42:18;;;;;;;11.63;7.68;;;;;;;;;;5044170;28;20032;-86
2023/06/05 05:44:45;;;;;;;10.57;7.75;;;;;;;;;;5031391;28;20055;-86
2023/06/05 05:47:11;;;;;;;9.93;7.70;;;;;;;;;;5035672;28;20052;-86
2023/06/05 05:49:37;;;;;;;11.00;7.57;;;;;;;;;;5022084;28;20555;-87
2023/06/05 05:52:03;;;;;;;10.60;7.65;;;;;;;;;;5051643;28;20048;-86
2023/06/05 05:54:29;;;;;;;11.35;7.90;;;;;;;;;;5049838;28;20109;-86
2023/06/05 05:56:55;;;;;;;13.98;8.15;;;;;;;;;;5037726;28;20114;-86
2023/06/05 05:59:22;;;;;;;11.18;8.57;;;;;;;;;;5043133;28;20127;-86
2023/06/05 06:01:52;;;;;;;11.48;7.88;;;;;;;;;;5005338;28;20193;-86
2023/06/05 06:04:18;;;;;;;12.38;8.23;;;;;;;;;;5002230;28;20084;-86
2023/06/05 06:06:47;;;;;;;8.75;7.35;;;;;;;;;;5019855;28;20588;-86
2023/06/05 06:09:15;;;;;;;11.00;8.02;;;;;;;;;;5025322;28;20059;-86
2023/06/05 06:11:41;;;;;;;10.13;7.38;;;;;;;;;;5023616;28;20127;-87
2023/06/05 06:14:09;;;;;;;7.78;6.75;;;;;;;;;;5046152;28;20056;-86
2023/06/05 06:16:36;;;;;;;10.57;7.88;;;;;;;;;;5009646;28;20582;-86
2023/06/05 06:19:03;;;;;;;11.85;8.23;;;;;;;;;;5049289;28;20041;-86
2023/06/05 06:21:29;;;;;;;13.00;7.78;;;;;;;;;;5025137;28;20142;-87
2023/06/05 06:24:42;;;;;;;8.77;7.10;;;;;;;;;;5040361;28;20040;-86
2023/06/05 06:27:48;;;;;;;9.35;6.07;;;;;;;;;;5015802;28;20403;-87
2023/06/05 06:30:14;;;;;;;7.97;5.03;;;;;;;;;;5024107;28;20480;-86
2023/06/05 06:32:40;;;;;;;8.43;4.85;;;;;;;;;;4971589;28;20052;-87
2023/06/05 06:35:12;;;;;;;8.77;4.47;;;;;;;;;;5013732;28;20048;-86
2023/06/05 06:37:38;;;;;;;6.80;5.32;;;;;;;;;;5020308;28;20048;-86
2023/06/05 06:40:08;;;;;;;6.57;4.97;;;;;;;;;;5036639;28;20045;-86
2023/06/05 06:42:35;;;;;;;9.13;5.45;;;;;;;;;;5029031;28;20083;-86
2023/06/05 06:45:03;;;;;;;5.53;4.80;;;;;;;;;;5044896;28;20048;-86
2023/06/05 06:47:29;;;;;;;5.72;5.13;;;;;;;;;;5035623;28;20410;-86
2023/06/05 06:49:56;;;;;;;6.30;5.05;;;;;;;;;;5028782;28;20057;-86
2023/06/05 06:52:22;;;;;;;5.88;4.70;;;;;;;;;;5050148;28;20048;-86
2023/06/05 06:54:48;;;;;;;5.43;4.93;;;;;;;;;;5043370;28;20044;-86
2023/06/05 06:57:14;;;;;;;4.93;4.40;;;;;;;;;;5014533;28;20059;-87
2023/06/05 06:59:41;;;;;;;7.50;4.93;;;;;;;;;;5038742;28;20066;-86
2023/06/05 07:02:11;;;;;;;5.53;4.25;;;;;;;;;;5043636;28;20041;-86
2023/06/05 07:04:38;;;;;;;6.10;4.00;;;;;;;;;;5042004;28;20052;-87
2023/06/05 07:07:04;;;;;;;5.47;4.28;;;;;;;;;;5060134;28;20044;-87
2023/06/05 07:09:30;;;;;;;6.22;3.97;;;;;;;;;;5045476;28;20051;-86
2023/06/05 07:11:56;;;;;;;5.15;4.00;;;;;;;;;;5025022;28;20040;-87
2023/06/05 07:14:22;;;;;;;5.97;3.88;;;;;;;;;;5041327;28;20044;-87
2023/06/05 07:16:51;;;;;;;3.88;3.20;;;;;;;;;;5040432;28;20127;-86
2023/06/05 07:19:17;;;;;;;3.70;3.40;;;;;;;;;;5047481;28;20129;-86
2023/06/05 07:21:43;;;;;;;3.97;3.58;;;;;;;;;;5027520;28;20041;-87
2023/06/05 07:24:09;;;;;;;3.42;3.13;;;;;;;;;;5041161;28;20040;-87
2023/06/05 07:26:36;;;;;;;4.70;3.42;;;;;;;;;;5038485;28;20167;-88
2023/06/05 07:29:02;;;;;;;4.30;3.00;;;;;;;;;;5048844;28;20050;-87
2023/06/05 07:31:30;;;;;;;3.95;3.17;;;;;;;;;;5059308;28;20044;-87
2023/06/05 07:33:56;;;;;;;5.53;3.33;;;;;;;;;;5022635;28;20040;-87
2023/06/05 07:36:22;;;;;;;6.00;3.42;;;;;;;;;;5047440;28;20040;-87
2023/06/05 07:38:49;;;;;;;3.70;3.35;;;;;;;;;;5007269;28;20048;-87
2023/06/05 07:41:15;;;;;;;3.80;3.30;;;;;;;;;;5053122;28;20098;-87
2023/06/05 07:43:42;;;;;;;4.63;3.72;;;;;;;;;;5023053;28;20067;-87
2023/06/05 07:46:08;;;;;;;4.47;3.80;;;;;;;;;;5042906;28;20105;-87
2023/06/05 07:48:38;;;;;;;3.75;3.45;;;;;;;;;;5031734;28;20036;-87
2023/06/05 07:51:04;;;;;;;4.78;3.38;;;;;;;;;;5029942;28;20835;-87
2023/06/05 07:53:30;;;;;;;5.45;3.50;;;;;;;;;;5040840;28;20559;-87
2023/06/05 07:55:56;;;;;;;5.70;3.03;;;;;;;;;;5044488;28;20036;-87
2023/06/05 07:58:22;;;;;;;4.70;3.50;;;;;;;;;;5048694;28;20044;-86
2023/06/05 08:00:48;;;;;;;3.35;3.05;;;;;;;;;;5036768;28;20049;-87
2023/06/05 08:03:19;;;;;;;3.53;3.10;;;;;;;;;;5036642;28;20064;-87
2023/06/05 08:05:49;;;;;;;4.38;3.15;;;;;;;;;;5049906;28;20036;-87
2023/06/05 08:08:15;;;;;;;3.63;3.03;;;;;;;;;;5053945;28;20394;-87
2023/06/05 08:10:41;;;;;;;3.58;3.15;;;;;;;;;;5043664;28;20047;-87
2023/06/05 08:13:08;;;;;;;4.00;3.00;;;;;;;;;;5055554;28;20114;-87
2023/06/05 08:15:34;;;;;;;6.35;3.67;;;;;;;;;;5040838;28;20119;-87
2023/06/05 08:18:00;;;;;;;2.90;2.60;;;;;;;;;;5036903;28;20052;-87
2023/06/05 08:20:26;;;;;;;4.07;2.60;;;;;;;;;;5041236;28;20041;-87
2023/06/05 08:22:52;;;;;;;3.88;2.70;;;;;;;;;;5042436;28;20043;-87
2023/06/05 08:25:18;;;;;;;2.83;2.42;;;;;;;;;;5043690;28;20095;-87
2023/06/05 08:27:45;;;;;;;2.92;2.58;;;;;;;;;;5037142;28;20423;-87
2023/06/05 08:30:11;;;;;;;3.08;2.53;;;;;;;;;;5046262;28;20373;-87
2023/06/05 08:32:37;;;;;;;3.38;2.55;;;;;;;;;;5033676;28;20508;-87
2023/06/05 08:35:03;;;;;;;2.97;2.65;;;;;;;;;;5035707;28;20102;-87
2023/06/05 08:37:29;;;;;;;4.72;2.60;;;;;;;;;;5042833;28;20039;-87
2023/06/05 08:39:58;;;;;;;3.60;2.70;;;;;;;;;;5037662;28;20041;-87
2023/06/05 08:42:28;;;;;;;2.97;2.30;;;;;;;;;;5044704;28;20063;-87
2023/06/05 08:44:54;;;;;;;3.78;2.90;;;;;;;;;;5036680;28;20029;-87
2023/06/05 08:47:20;;;;;;;4.78;2.92;;;;;;;;;;5031010;28;20064;-87
2023/06/05 08:49:46;;;;;;;3.42;2.45;;;;;;;;;;5021472;28;20041;-87
2023/06/05 08:52:14;;;;;;;3.53;2.50;;;;;;;;;;5044109;28;20078;-87
2023/06/05 08:54:40;;;;;;;3.25;2.75;;;;;;;;;;5023795;28;20150;-88
2023/06/05 08:57:07;;;;;;;4.28;2.83;;;;;;;;;;5026664;28;20047;-87
2023/06/05 08:59:33;;;;;;;2.90;2.30;;;;;;;;;;5048671;28;20128;-88
2023/06/05 09:01:59;;;;;;;2.85;2.42;;;;;;;;;;5046888;28;20487;-88
2023/06/05 09:04:29;;;;;;;3.10;2.72;;;;;;;;;;5028215;28;20148;-88
2023/06/05 09:06:57;;;;;;;3.78;2.47;;;;;;;;;;5040643;28;20140;-88
2023/06/05 09:09:23;;;;;;;6.82;3.33;;;;;;;;;;5029859;28;20074;-87
2023/06/05 09:12:01;;;;;;;3.40;2.50;;;;;;;;;;5022544;28;20041;-88
2023/06/05 09:14:27;;;;;;;3.20;2.78;;;;;;;;;;5042619;28;20084;-87
2023/06/05 09:16:53;;;;;;;2.60;2.40;;;;;;;;;;5043153;28;20037;-88
2023/06/05 09:19:25;;;;;;;3.03;2.33;;;;;;;;;;5024345;28;20095;-88
2023/06/05 09:21:54;;;;;;;4.50;2.75;;;;;;;;;;5025483;28;20040;-87
2023/06/05 09:24:21;;;;;;;3.40;2.70;;;;;;;;;;5041097;28;20075;-88
2023/06/05 09:26:56;;;;;;;3.30;2.67;;;;;;;;;;5036490;28;20111;-88
2023/06/05 09:29:26;;;;;;;4.10;2.83;;;;;;;;;;5040725;28;20043;-88
2023/06/05 09:31:53;;;;;;;4.97;2.72;;;;;;;;;;5038082;28;20066;-88
2023/06/05 09:34:29;;;;;;;4.65;2.60;;;;;;;;;;5043791;28;20076;-88
2023/06/05 09:36:59;;;;;;;4.95;2.92;;;;;;;;;;5049605;28;20101;-88
2023/06/05 09:39:26;;;;;;;3.75;2.95;;;;;;;;;;5035766;28;20131;-88
2023/06/05 09:41:52;;;;;;;4.82;3.28;;;;;;;;;;5039107;28;20054;-88
2023/06/05 09:44:18;;;;;;;5.00;3.00;;;;;;;;;;5030443;28;20134;-87
2023/06/05 09:46:54;;;;;;;3.20;2.63;;;;;;;;;;5028985;28;20446;-87
2023/06/05 09:49:20;;;;;;;4.18;2.80;;;;;;;;;;5048383;28;20483;-88
2023/06/05 09:51:47;;;;;;;3.42;3.05;;;;;;;;;;5026868;28;20036;-88
2023/06/05 09:54:13;;;;;;;5.25;3.25;;;;;;;;;;5032473;28;20043;-88
2023/06/05 09:56:48;;;;;;;5.45;3.10;;;;;;;;;;5021312;28;20072;-88
2023/06/05 09:59:17;;;;;;;6.03;2.95;;;;;;;;;;5032757;28;20498;-88
2023/06/05 10:01:43;;;;;;;5.03;2.70;;;;;;;;;;5013791;28;20074;-88
2023/06/05 10:04:10;;;;;;;3.38;2.45;;;;;;;;;;5029862;28;20406;-88
2023/06/05 10:06:36;;;;;;;6.15;2.92;;;;;;;;;;5041912;28;20048;-88
2023/06/05 10:09:03;;;;;;;3.40;2.95;;;;;;;;;;5034183;28;20625;-88
2023/06/05 10:11:29;;;;;;;6.28;3.30;;;;;;;;;;5032370;28;20044;-88
2023/06/05 10:13:57;;;;;;;3.58;2.75;;;;;;;;;;5029916;28;20794;-89
2023/06/05 10:16:23;;;;;;;4.50;3.53;;;;;;;;;;5046409;28;20045;-88
2023/06/05 10:18:49;;;;;;;4.45;2.75;;;;;;;;;;5043497;28;20437;-88
2023/06/05 10:21:16;;;;;;;2.72;2.47;;;;;;;;;;5044669;28;20713;-88
2023/06/05 10:23:46;;;;;;;3.28;2.75;;;;;;;;;;5021348;28;20399;-88
2023/06/05 10:26:16;;;;;;;3.95;3.10;;;;;;;;;;5027306;28;20553;-88
2023/06/05 10:28:48;;;;;;;3.38;3.08;;;;;;;;;;5026756;28;20063;-88
2023/06/05 10:31:19;;;;;;;4.07;2.85;;;;;;;;;;5015406;28;20046;-88
2023/06/05 10:34:04;;;;;;;3.20;2.90;;;;;;;;;;5040835;28;20486;-89
2023/06/05 10:36:39;;;;;;;4.00;2.75;;;;;;;;;;5045469;28;20501;-85
2023/06/05 10:39:06;;;;;;;4.07;2.88;;;;;;;;;;5042394;28;20078;-84
2023/06/05 10:41:33;;;;;;;3.10;2.70;;;;;;;;;;5044046;28;20209;-83
2023/06/05 10:44:04;;;;;;;3.75;2.63;;;;;;;;;;5041590;28;20060;-84
2023/06/05 10:46:31;;;;;;;5.65;3.40;;;;;;;;;;5044831;28;20040;-84
2023/06/05 10:49:10;;;;;;;3.50;3.15;;;;;;;;;;5037886;28;20601;-83
2023/06/05 10:51:53;;;;;;;3.25;2.95;;;;;;;;;;5041237;28;20045;-84
2023/06/05 10:54:22;;;;;;;4.95;2.95;;;;;;;;;;5044311;28;20040;-84
2023/06/05 10:56:56;;;;;;;4.82;2.85;;;;;;;;;;5043176;28;20513;-83
2023/06/05 10:59:22;;;;;;;4.30;3.38;;;;;;;;;;5048038;28;20513;-84
2023/06/05 11:02:16;;;;;;;3.22;2.92;;;;;;;;;;5037686;28;20044;-87
2023/06/05 11:04:46;;;;;;;3.38;2.75;;;;;;;;;;5037695;28;20061;-85
2023/06/05 11:07:21;;;;;;;3.53;3.10;;;;;;;;;;5040560;28;20045;-85
2023/06/05 11:10:02;;;;;;;4.72;2.75;;;;;;;;;;5046957;28;20380;-84
2023/06/05 11:15:07;;;;;;;3.40;3.10;;;;;;;;;;5049587;28;20102;-84
2023/06/05 11:17:34;;;;;;;4.73;3.00;;;;;;;;;;5033695;28;20521;-84
2023/06/05 11:20:03;;;;;;;2.95;2.72;;;;;;;;;;5047021;28;20079;-84
2023/06/05 11:22:29;;;;;;;3.17;2.90;;;;;;;;;;5045977;28;20048;-84
2023/06/05 11:25:14;;;;;;;4.32;3.50;;;;;;;;;;5046155;28;20133;-84
2023/06/05 11:27:43;;;;;;;4.85;3.20;;;;;;;;;;5040297;28;20036;-84
2023/06/05 11:30:12;;;;;;;6.00;2.83;;;;;;;;;;5053030;28;20123;-84
2023/06/05 11:32:39;;;;;;;3.50;3.00;;;;;;;;;;5039343;28;20055;-84
2023/06/05 11:35:05;;;;;;;3.15;2.50;;;;;;;;;;5055667;28;20052;-83
2023/06/05 11:37:34;;;;;;;5.10;2.75;;;;;;;;;;5045531;28;20045;-84
2023/06/05 11:40:10;;;;;;;4.80;3.33;;;;;;;;;;5055707;28;20631;-84
2023/06/05 11:42:38;;;;;;;3.47;2.95;;;;;;;;;;5045814;28;20047;-84
2023/06/05 11:45:05;;;;;;;5.13;3.28;;;;;;;;;;5049569;28;20055;-84
2023/06/05 11:47:31;;;;;;;4.93;3.17;;;;;;;;;;5049433;28;20036;-83
2023/06/05 11:50:13;;;;;;;2.88;2.60;;;;;;;;;;5038982;28;20036;-84
2023/06/05 11:52:39;;;;;;;5.05;2.78;;;;;;;;;;5037696;28;20044;-84
2023/06/05 11:55:14;;;;;;;4.47;2.72;;;;;;;;;;5041067;28;20060;-84
2023/06/05 11:57:43;;;;;;;4.10;2.50;;;;;;;;;;5039511;28;20036;-84
2023/06/05 12:00:11;;;;;;;3.78;2.63;;;;;;;;;;5027157;28;20040;-84
2023/06/05 12:02:37;;;;;;;3.38;3.08;;;;;;;;;;5019862;28;20083;-84
2023/06/05 12:05:04;;;;;;;3.88;2.88;;;;;;;;;;5017260;28;20078;-84
2023/06/05 12:07:31;;;;;;;4.27;2.83;;;;;;;;;;5026524;28;20041;-84
2023/06/05 12:09:58;;;;;;;3.40;3.10;;;;;;;;;;5040053;28;20657;-84
2023/06/05 12:12:25;;;;;;;5.53;2.50;;;;;;;;;;5019452;28;20055;-84
2023/06/05 12:14:54;;;;;;;3.47;3.13;;;;;;;;;;5027811;28;20043;-84
2023/06/05 12:17:20;;;;;;;5.50;3.20;;;;;;;;;;5047101;28;20120;-84
2023/06/05 12:19:52;;;;;;;5.05;2.90;;;;;;;;;;5025249;28;20472;-84
2023/06/05 12:22:19;;;;;;;4.40;3.00;;;;;;;;;;5034513;28;20487;-84
2023/06/05 12:24:46;;;;;;;3.05;2.78;;;;;;;;;;5032378;28;20861;-84
2023/06/05 12:27:12;;;;;;;4.10;2.70;;;;;;;;;;5054200;28;20033;-84
2023/06/05 12:29:38;;;;;;;4.63;2.70;;;;;;;;;;5008852;28;20032;-83
2023/06/05 12:32:19;;;;;;;4.40;2.92;;;;;;;;;;5010483;28;20055;-84
2023/06/05 12:34:46;;;;;;;3.85;2.55;;;;;;;;;;5012830;28;20394;-84
2023/06/05 12:37:21;;;;;;;4.18;2.60;;;;;;;;;;5011870;28;20055;-84
2023/06/05 12:39:47;;;;;;;3.60;2.40;;;;;;;;;;5007500;28;20484;-84
2023/06/05 12:42:13;;;;;;;4.47;2.40;;;;;;;;;;5023435;28;20494;-84
2023/06/05 12:44:39;;;;;;;5.82;3.28;;;;;;;;;;5041207;28;20055;-84
2023/06/05 12:47:06;;;;;;;5.55;3.08;;;;;;;;;;5013838;28;20449;-84
2023/06/05 12:49:32;;;;;;;7.43;2.90;;;;;;;;;;5026108;28;20472;-84
2023/06/05 12:52:01;;;;;;;3.53;2.90;;;;;;;;;;5039472;28;20052;-84
2023/06/05 12:54:28;;;;;;;5.03;2.92;;;;;;;;;;5043301;28;20493;-84
2023/06/05 12:56:55;;;;;;;5.05;3.00;;;;;;;;;;5035188;28;20445;-84
2023/06/05 12:59:21;;;;;;;5.47;2.78;;;;;;;;;;5041284;28;20052;-83
2023/06/05 13:01:47;;;;;;;3.47;2.67;;;;;;;;;;5033536;28;20045;-84
2023/06/05 13:04:14;;;;;;;4.15;2.90;;;;;;;;;;5027596;28;20063;-84
2023/06/05 13:06:41;;;;;;;3.90;3.00;;;;;;;;;;5025053;28;20063;-84
2023/06/05 13:09:07;;;;;;;4.60;3.10;;;;;;;;;;5011829;28;20040;-84
2023/06/05 13:11:33;;;;;;;4.35;2.72;;;;;;;;;;5020627;28;20044;-84
2023/06/05 13:14:00;;;;;;;2.92;2.72;;;;;;;;;;5016628;28;20048;-84
2023/06/05 13:16:26;;;;;;;3.50;3.20;;;;;;;;;;5018607;28;20041;-84
2023/06/05 13:18:52;;;;;;;3.78;2.50;;;;;;;;;;5009161;28;20045;-84
2023/06/05 13:21:18;;;;;;;4.10;2.50;;;;;;;;;;5045237;28;20048;-84
2023/06/05 13:23:44;;;;;;;2.50;2.30;;;;;;;;;;5019165;28;20707;-84
2023/06/05 13:26:11;;;;;;;4.53;2.67;;;;;;;;;;5025516;28;20463;-84
2023/06/05 13:28:37;;;;;;;3.85;3.10;;;;;;;;;;5023123;28;20066;-84
2023/06/05 13:31:04;;;;;;;5.47;3.15;;;;;;;;;;5029337;28;20079;-84
2023/06/05 13:33:30;;;;;;;2.85;2.65;;;;;;;;;;5015805;28;20916;-84
2023/06/05 13:35:56;;;;;;;5.22;2.80;;;;;;;;;;5031796;28;20048;-84
2023/06/05 13:38:22;;;;;;;3.25;2.40;;;;;;;;;;5034809;28;20156;-83
2023/06/05 13:40:53;;;;;;;2.70;2.05;;;;;;;;;;5023533;28;20047;-84
2023/06/05 13:43:19;;;;;;;3.10;2.40;;;;;;;;;;5034272;28;20032;-84
2023/06/05 13:45:45;;;;;;;4.65;2.90;;;;;;;;;;5015023;28;20475;-84
2023/06/05 13:48:11;;;;;;;7.00;3.10;;;;;;;;;;5026125;28;20036;-84
2023/06/05 13:50:37;;;;;;;4.05;2.95;;;;;;;;;;5020158;28;20355;-86
2023/06/05 13:53:04;;;;;;;3.75;2.65;;;;;;;;;;5022834;28;20048;-84
2023/06/05 13:55:30;;;;;;;4.88;2.60;;;;;;;;;;5026881;28;20040;-84
2023/06/05 13:58:00;;;;;;;3.05;2.75;;;;;;;;;;5040289;28;20044;-84
2023/06/05 14:00:26;;;;;;;3.80;2.53;;;;;;;;;;5029694;28;20079;-84
2023/06/05 14:02:52;;;;;;;3.17;2.70;;;;;;;;;;5043071;28;20151;-84
2023/06/05 14:05:18;;;;;;;4.13;2.90;;;;;;;;;;5019815;28;20052;-84
2023/06/05 14:07:44;;;;;;;4.90;3.30;;;;;;;;;;5029908;28;20545;-84
2023/06/05 14:10:10;;;;;;;4.03;2.90;;;;;;;;;;5032690;28;20041;-85
2023/06/05 14:12:36;;;;;;;3.72;3.20;;;;;;;;;;5031773;28;20135;-85
2023/06/05 14:15:03;;;;;;;3.47;3.13;;;;;;;;;;5037227;28;20075;-84
2023/06/05 14:17:29;;;;;;;6.13;3.45;;;;;;;;;;5032911;28;20055;-84
2023/06/05 14:19:55;;;;;;;4.30;3.30;;;;;;;;;;5023698;28;21251;-84
2023/06/05 14:22:21;;;;;;;3.65;3.05;;;;;;;;;;5033394;28;20040;-85
2023/06/05 14:24:47;;;;;;;3.60;3.30;;;;;;;;;;5018077;28;20029;-84
2023/06/05 14:27:15;;;;;;;3.42;3.13;;;;;;;;;;5025540;28;20032;-84
2023/06/05 14:29:41;;;;;;;3.42;3.13;;;;;;;;;;5031143;28;20033;-84
2023/06/05 14:32:07;;;;;;;5.18;3.00;;;;;;;;;;5042846;28;20052;-84
2023/06/05 14:34:33;;;;;;;4.57;3.10;;;;;;;;;;5048972;28;20963;-85
2023/06/05 14:36:59;;;;;;;3.15;2.80;;;;;;;;;;5053398;28;20052;-84
2023/06/05 14:39:25;;;;;;;4.68;3.90;;;;;;;;;;5026899;28;20113;-84
2023/06/05 14:41:51;;;;;;;3.97;3.35;;;;;;;;;;5030728;28;20045;-85
2023/06/05 14:44:17;;;;;;;6.88;3.55;;;;;;;;;;5036830;28;20047;-85